createdAt,value
2022-09-16T00:01:21.084Z,23.90
2022-09-16T00:03:51.076Z,23.90
2022-09-16T00:06:22.563Z,23.90
2022-09-16T00:08:52.867Z,23.90
2022-09-16T00:11:23.036Z,23.90
2022-09-16T00:13:53.034Z,23.90
2022-09-16T00:16:25.310Z,23.90
2022-09-16T00:19:01.872Z,23.90
2022-09-16T00:21:32.189Z,23.90
2022-09-16T00:24:02.234Z,24.00
2022-09-16T00:26:32.253Z,24.00
2022-09-16T00:29:02.249Z,23.90
2022-09-16T00:31:35.998Z,23.90
2022-09-16T00:34:06.109Z,23.90
2022-09-16T00:36:36.104Z,23.90
2022-09-16T00:39:06.187Z,23.90
2022-09-16T00:41:37.424Z,24.00
2022-09-16T00:44:09.251Z,24.00
2022-09-16T00:46:46.915Z,23.90
2022-09-16T00:49:28.625Z,23.90
2022-09-16T00:52:01.527Z,23.90
2022-09-16T00:54:31.179Z,23.90
2022-09-16T00:57:01.235Z,23.80
2022-09-16T00:59:37.676Z,23.80
2022-09-16T01:02:15.209Z,23.80
2022-09-16T01:05:03.537Z,23.80
2022-09-16T01:07:42.993Z,23.70
2022-09-16T01:10:13.931Z,23.70
2022-09-16T01:12:45.424Z,23.70
2022-09-16T01:15:15.913Z,23.70
2022-09-16T01:18:06.754Z,23.70
2022-09-16T01:20:58.348Z,23.60
2022-09-16T01:23:55.670Z,23.60
2022-09-16T01:26:46.979Z,23.60
2022-09-16T01:29:46.855Z,23.60
2022-09-16T01:32:40.169Z,23.50
2022-09-16T01:35:28.258Z,23.50
2022-09-16T01:38:30.370Z,23.50
2022-09-16T01:41:26.314Z,23.50
2022-09-16T01:43:58.137Z,23.50
2022-09-16T01:46:57.002Z,23.50
2022-09-16T01:49:47.086Z,23.50
2022-09-16T01:52:25.933Z,23.50
2022-09-16T01:55:02.664Z,23.50
2022-09-16T01:57:50.824Z,23.50
2022-09-16T02:00:20.811Z,23.60
2022-09-16T02:03:10.718Z,23.60
2022-09-16T02:06:07.903Z,23.60
2022-09-16T02:08:52.665Z,23.60
2022-09-16T02:11:22.585Z,23.60
2022-09-16T02:14:01.099Z,23.50
2022-09-16T02:16:42.733Z,23.60
2022-09-16T02:19:17.101Z,23.60
2022-09-16T02:21:47.159Z,23.60
2022-09-16T02:24:19.632Z,23.60
2022-09-16T02:27:01.902Z,23.60
2022-09-16T02:29:36.226Z,23.70
2022-09-16T02:32:07.799Z,23.70
2022-09-16T02:34:44.099Z,23.70
2022-09-16T02:37:17.749Z,23.70
2022-09-16T02:39:51.226Z,23.80
2022-09-16T02:42:21.335Z,23.70
2022-09-16T02:44:51.297Z,23.70
2022-09-16T02:47:58.372Z,23.80
2022-09-16T02:51:06.490Z,23.70
2022-09-16T02:53:42.112Z,23.70
2022-09-16T02:56:22.096Z,23.70
2022-09-16T02:58:52.035Z,23.80
2022-09-16T03:01:22.164Z,23.80
2022-09-16T03:03:53.201Z,23.90
2022-09-16T03:06:28.041Z,23.90
2022-09-16T03:09:00.483Z,24.00
2022-09-16T03:11:39.771Z,24.00
2022-09-16T03:14:27.876Z,24.00
2022-09-16T03:17:31.875Z,24.00
2022-09-16T03:20:08.634Z,24.10
2022-09-16T03:23:09.059Z,24.10
2022-09-16T03:26:00.757Z,24.20
2022-09-16T03:28:53.020Z,24.20
2022-09-16T03:31:40.584Z,24.20
2022-09-16T03:34:37.216Z,24.30
2022-09-16T03:37:13.013Z,24.40
2022-09-16T03:39:43.179Z,24.40
2022-09-16T03:42:13.521Z,24.40
2022-09-16T03:44:44.121Z,24.50
2022-09-16T03:47:14.390Z,24.50
2022-09-16T03:49:44.471Z,24.60
2022-09-16T03:52:14.508Z,24.60
2022-09-16T03:54:44.805Z,24.60
2022-09-16T03:57:14.989Z,24.60
2022-09-16T03:59:44.947Z,24.60
2022-09-16T04:02:15.089Z,24.70
2022-09-16T04:04:45.049Z,24.70
2022-09-16T04:07:14.887Z,24.80
2022-09-16T04:09:44.811Z,24.80
2022-09-16T04:12:15.500Z,24.80
2022-09-16T04:14:45.561Z,24.90
2022-09-16T04:17:15.518Z,24.90
2022-09-16T04:19:45.496Z,24.90
2022-09-16T04:22:15.502Z,24.90
2022-09-16T04:24:46.102Z,25.00
2022-09-16T04:27:16.014Z,25.00
2022-09-16T04:29:45.898Z,25.00
2022-09-16T04:32:15.829Z,25.10
2022-09-16T04:34:46.076Z,25.10
2022-09-16T04:37:17.616Z,24.90
2022-09-16T04:39:48.372Z,25.00
2022-09-16T04:42:18.685Z,25.10
2022-09-16T04:44:48.658Z,25.10
2022-09-16T04:47:18.572Z,25.10
2022-09-16T04:49:48.461Z,25.20
2022-09-16T04:52:18.446Z,25.20
2022-09-16T04:54:48.423Z,25.20
2022-09-16T04:57:18.375Z,25.20
2022-09-16T04:59:48.336Z,25.20
2022-09-16T05:02:18.288Z,25.30
2022-09-16T05:04:48.247Z,25.30
2022-09-16T05:07:18.278Z,25.40
2022-09-16T05:09:48.181Z,25.40
2022-09-16T05:12:18.088Z,25.50
2022-09-16T05:14:48.039Z,25.50
2022-09-16T05:17:39.509Z,25.60
2022-09-16T05:20:08.449Z,25.60
2022-09-16T05:22:38.480Z,25.70
2022-09-16T05:25:08.855Z,25.70
2022-09-16T05:27:38.997Z,25.80
2022-09-16T05:30:09.530Z,25.80
2022-09-16T05:32:39.448Z,25.90
2022-09-16T05:35:09.798Z,25.90
2022-09-16T05:37:39.939Z,26.00
2022-09-16T05:40:10.560Z,26.00
2022-09-16T05:42:40.634Z,26.00
2022-09-16T05:45:10.949Z,26.10
2022-09-16T05:47:41.315Z,26.10
2022-09-16T05:50:11.422Z,26.10
2022-09-16T05:52:41.401Z,26.20
2022-09-16T05:55:11.670Z,26.20
2022-09-16T05:57:41.923Z,26.30
2022-09-16T06:00:31.245Z,26.30
2022-09-16T06:03:01.367Z,26.40
2022-09-16T06:05:34.270Z,26.40
2022-09-16T06:08:05.140Z,26.40
2022-09-16T06:10:42.120Z,26.40
2022-09-16T06:13:12.426Z,26.50
2022-09-16T06:15:42.427Z,26.50
2022-09-16T06:18:17.153Z,26.50
2022-09-16T06:20:48.387Z,26.60
2022-09-16T06:23:18.646Z,26.50
2022-09-16T06:25:48.739Z,26.50
2022-09-16T06:28:19.510Z,26.50
2022-09-16T06:30:50.214Z,26.70
2022-09-16T06:33:20.433Z,26.70
2022-09-16T06:35:50.727Z,26.60
2022-09-16T06:38:20.642Z,26.50
2022-09-16T06:40:51.615Z,26.50
2022-09-16T06:43:21.969Z,26.40
2022-09-16T06:45:52.093Z,26.40
2022-09-16T06:48:22.485Z,26.40
2022-09-16T06:51:02.311Z,26.40
2022-09-16T06:53:32.766Z,26.40
2022-09-16T06:56:07.699Z,27.00
2022-09-16T06:58:38.475Z,27.00
2022-09-16T07:01:15.643Z,27.00
2022-09-16T07:03:48.204Z,27.10
2022-09-16T07:06:18.854Z,27.00
2022-09-16T07:08:49.080Z,27.10
2022-09-16T07:11:22.807Z,27.00
2022-09-16T07:13:53.300Z,27.00
2022-09-16T07:16:27.417Z,26.90
2022-09-16T07:19:01.085Z,26.80
2022-09-16T07:21:31.470Z,26.70
2022-09-16T07:24:03.730Z,26.60
2022-09-16T07:26:37.427Z,26.50
2022-09-16T07:29:09.092Z,26.50
2022-09-16T07:31:40.019Z,26.40
2022-09-16T07:34:11.369Z,26.30
2022-09-16T07:36:43.688Z,26.30
2022-09-16T07:39:15.402Z,26.20
2022-09-16T07:41:46.676Z,26.10
2022-09-16T07:44:18.178Z,26.10
2022-09-16T07:46:49.247Z,25.90
2022-09-16T07:49:19.812Z,25.90
2022-09-16T07:51:50.427Z,25.80
2022-09-16T07:54:21.324Z,25.70
2022-09-16T07:56:51.313Z,25.60
2022-09-16T07:59:22.049Z,25.50
2022-09-16T08:01:52.174Z,25.50
2022-09-16T08:04:23.486Z,25.40
2022-09-16T08:06:53.575Z,25.40
2022-09-16T08:09:41.981Z,25.30
2022-09-16T08:12:15.837Z,25.20
2022-09-16T08:14:45.728Z,25.10
2022-09-16T08:17:15.641Z,25.10
2022-09-16T08:19:45.571Z,25.00
2022-09-16T08:22:15.984Z,24.90
2022-09-16T08:24:46.456Z,24.90
2022-09-16T08:27:17.329Z,24.80
2022-09-16T08:29:47.611Z,24.80
2022-09-16T08:32:18.284Z,24.70
2022-09-16T08:34:48.854Z,24.70
2022-09-16T08:37:19.183Z,24.60
2022-09-16T08:39:50.347Z,24.60
2022-09-16T08:42:39.271Z,24.50
2022-09-16T08:45:37.032Z,24.50
2022-09-16T08:48:22.244Z,24.50
2022-09-16T08:50:54.315Z,24.40
2022-09-16T08:53:45.387Z,24.40
2022-09-16T08:56:20.683Z,24.30
2022-09-16T08:58:55.458Z,24.30
2022-09-16T09:01:43.659Z,24.20
2022-09-16T09:04:14.618Z,24.20
2022-09-16T09:06:50.488Z,24.20
2022-09-16T09:09:29.466Z,24.10
2022-09-16T09:12:21.348Z,24.20
2022-09-16T09:15:00.830Z,24.10
2022-09-16T09:17:48.032Z,24.10
2022-09-16T09:20:33.631Z,24.00
2022-09-16T09:23:29.459Z,24.00
2022-09-16T09:26:23.278Z,23.90
2022-09-16T09:29:26.814Z,24.00
2022-09-16T09:31:56.372Z,23.90
2022-09-16T09:34:58.735Z,23.90
2022-09-16T09:37:47.240Z,23.80
2022-09-16T09:40:33.528Z,23.80
2022-09-16T09:43:08.608Z,23.70
2022-09-16T09:45:41.554Z,23.70
2022-09-16T09:48:21.991Z,23.70
2022-09-16T09:50:52.997Z,23.60
2022-09-16T09:53:29.814Z,23.60
2022-09-16T09:56:09.309Z,23.60
2022-09-16T09:59:01.231Z,23.60
2022-09-16T10:01:37.292Z,23.50
2022-09-16T10:04:17.093Z,23.50
2022-09-16T10:06:47.593Z,23.50
2022-09-16T10:09:17.998Z,23.40
2022-09-16T10:11:58.643Z,23.40
2022-09-16T10:14:32.706Z,23.40
2022-09-16T10:17:04.492Z,23.40
2022-09-16T10:19:56.549Z,23.40
2022-09-16T10:22:30.733Z,23.30
2022-09-16T10:25:02.252Z,23.30
2022-09-16T10:27:37.055Z,23.20
2022-09-16T10:30:19.037Z,23.20
2022-09-16T10:33:01.411Z,23.20
2022-09-16T10:35:36.218Z,23.20
2022-09-16T10:38:17.592Z,23.10
2022-09-16T10:40:59.185Z,23.10
2022-09-16T10:43:30.057Z,23.10
2022-09-16T10:46:00.228Z,23.00
2022-09-16T10:48:30.873Z,23.00
2022-09-16T10:51:03.456Z,23.00
2022-09-16T10:53:39.289Z,23.00
2022-09-16T10:56:23.375Z,22.90
2022-09-16T10:59:14.029Z,22.90
2022-09-16T11:02:07.437Z,23.00
2022-09-16T11:05:01.935Z,23.00
2022-09-16T11:07:53.949Z,23.00
2022-09-16T11:10:33.395Z,23.00
2022-09-16T11:13:24.969Z,23.00
2022-09-16T11:16:27.114Z,22.90
2022-09-16T11:19:08.453Z,23.00
2022-09-16T11:21:47.711Z,23.00
2022-09-16T11:24:31.261Z,23.00
2022-09-16T11:27:01.233Z,23.00
2022-09-16T11:29:34.317Z,23.00
2022-09-16T11:32:22.649Z,23.00
2022-09-16T11:35:23.260Z,23.00
2022-09-16T11:38:01.870Z,22.90
2022-09-16T11:40:53.137Z,22.90
2022-09-16T11:43:47.652Z,22.90
2022-09-16T11:46:34.345Z,22.90
2022-09-16T11:49:32.648Z,22.90
2022-09-16T11:52:19.676Z,22.90
2022-09-16T11:55:08.061Z,22.80
2022-09-16T11:57:43.739Z,22.90
2022-09-16T12:00:17.852Z,22.90
2022-09-16T12:03:05.704Z,22.90
2022-09-16T12:05:42.686Z,22.90
2022-09-16T12:08:14.697Z,22.80
2022-09-16T12:10:49.907Z,22.80
2022-09-16T12:13:35.290Z,22.80
2022-09-16T12:16:07.354Z,22.70
2022-09-16T12:19:06.699Z,22.70
2022-09-16T12:21:45.111Z,22.70
2022-09-16T12:24:23.614Z,22.60
2022-09-16T12:27:36.033Z,22.50
2022-09-16T12:30:20.716Z,22.40
2022-09-16T12:33:00.138Z,22.40
2022-09-16T12:35:55.264Z,22.30
2022-09-16T12:38:25.233Z,22.30
2022-09-16T12:41:08.590Z,22.30
2022-09-16T12:43:51.940Z,21.70
2022-09-16T12:46:29.487Z,18.60
2022-09-16T12:49:21.467Z,19.40
2022-09-16T12:52:29.422Z,20.20
2022-09-16T12:55:11.343Z,20.80
2022-09-16T12:58:08.627Z,21.00
2022-09-16T13:00:46.887Z,21.20
2022-09-16T13:03:21.954Z,21.30
2022-09-16T13:05:53.376Z,21.40
2022-09-16T13:08:28.714Z,21.40
2022-09-16T13:12:07.264Z,21.50
2022-09-16T13:14:29.216Z,21.50
2022-09-16T13:17:00.208Z,21.50
2022-09-16T13:19:50.173Z,21.50
2022-09-16T13:22:40.132Z,21.60
2022-09-16T13:25:24.143Z,21.50
2022-09-16T13:28:05.019Z,21.60
2022-09-16T13:30:38.957Z,21.60
2022-09-16T13:33:15.662Z,21.50
2022-09-16T13:35:47.015Z,21.60
2022-09-16T13:38:16.922Z,21.50
2022-09-16T13:41:03.259Z,21.60
2022-09-16T13:43:43.314Z,21.60
2022-09-16T13:46:19.794Z,21.60
2022-09-16T13:49:23.859Z,21.60
2022-09-16T13:51:54.463Z,21.60
2022-09-16T13:54:27.654Z,21.60
2022-09-16T13:57:15.710Z,21.60
2022-09-16T13:59:48.556Z,21.60
2022-09-16T14:02:36.922Z,21.60
2022-09-16T14:05:31.549Z,21.50
2022-09-16T14:08:16.769Z,21.50
2022-09-16T14:11:02.359Z,21.60
2022-09-16T14:16:53.285Z,21.50
2022-09-16T14:19:23.628Z,21.50
2022-09-16T14:22:28.065Z,21.50
2022-09-16T14:25:07.019Z,21.50
2022-09-16T14:27:44.804Z,21.50
2022-09-16T14:30:19.198Z,21.50
2022-09-16T14:32:49.844Z,21.50
2022-09-16T14:35:27.705Z,21.50
2022-09-16T14:40:56.905Z,21.50
2022-09-16T14:43:26.960Z,21.50
2022-09-16T14:48:32.544Z,21.50
2022-09-16T14:51:02.679Z,21.50
2022-09-16T14:53:36.350Z,21.40
2022-09-16T14:56:07.696Z,21.50
2022-09-16T14:58:37.616Z,21.40
2022-09-16T15:01:12.316Z,21.50
2022-09-16T15:03:47.552Z,21.40
2022-09-16T15:06:20.013Z,21.40
2022-09-16T15:09:16.892Z,21.40
2022-09-16T15:11:49.337Z,21.40
2022-09-16T15:14:22.117Z,21.40
2022-09-16T15:16:55.008Z,21.40
2022-09-16T15:19:25.340Z,21.40
2022-09-16T15:21:55.537Z,21.40
2022-09-16T15:24:32.489Z,21.40
2022-09-16T15:27:02.784Z,21.40
2022-09-16T15:29:35.134Z,21.40
2022-09-16T15:32:19.618Z,21.30
2022-09-16T15:34:50.812Z,21.30
2022-09-16T15:37:35.567Z,21.30
2022-09-16T15:40:12.858Z,21.30
2022-09-16T15:42:43.365Z,21.30
2022-09-16T15:45:19.252Z,21.30
2022-09-16T15:48:00.501Z,21.20
2022-09-16T15:50:31.931Z,21.30
2022-09-16T15:53:08.614Z,21.20
2022-09-16T15:55:58.900Z,21.20
2022-09-16T15:58:34.195Z,21.20
2022-09-16T16:01:12.546Z,21.20
2022-09-16T16:04:01.504Z,21.30
2022-09-16T16:06:47.700Z,21.20
2022-09-16T16:09:36.449Z,21.20
2022-09-16T16:12:11.576Z,21.20
2022-09-16T16:14:42.060Z,21.20
2022-09-16T16:17:20.771Z,21.20
2022-09-16T16:19:52.404Z,21.20
2022-09-16T16:22:22.794Z,21.20
2022-09-16T16:24:52.823Z,21.20
2022-09-16T16:27:22.874Z,21.10
2022-09-16T16:29:53.665Z,21.10
2022-09-16T16:32:23.576Z,21.10
2022-09-16T16:34:57.482Z,21.10
2022-09-16T16:37:46.078Z,21.10
2022-09-16T16:40:17.662Z,21.10
2022-09-16T16:42:48.191Z,21.10
2022-09-16T16:45:18.303Z,21.10
2022-09-16T16:47:48.808Z,21.10
2022-09-16T16:50:19.652Z,21.10
2022-09-16T16:52:54.824Z,21.10
2022-09-16T16:55:32.344Z,21.10
2022-09-16T16:58:04.305Z,21.10
2022-09-16T17:00:35.149Z,21.10
2022-09-16T17:03:05.408Z,21.10
2022-09-16T17:05:36.037Z,21.10
2022-09-16T17:08:06.460Z,21.10
2022-09-16T17:10:37.351Z,21.10
2022-09-16T17:13:07.355Z,21.10
2022-09-16T17:15:37.676Z,21.00
2022-09-16T17:18:07.884Z,21.00
2022-09-16T17:20:38.633Z,21.00
2022-09-16T17:23:08.600Z,21.00
2022-09-16T17:25:39.717Z,21.00
2022-09-16T17:28:09.787Z,21.10
2022-09-16T17:30:44.311Z,21.00
2022-09-16T17:33:14.296Z,21.00
2022-09-16T17:35:44.332Z,21.00
2022-09-16T17:38:14.469Z,21.00
2022-09-16T17:40:45.062Z,21.00
2022-09-16T17:43:15.022Z,21.00
2022-09-16T17:45:50.659Z,21.10
2022-09-16T17:48:20.904Z,21.00
2022-09-16T17:50:55.770Z,21.00
2022-09-16T17:53:25.857Z,21.00
2022-09-16T17:56:07.658Z,21.00
2022-09-16T17:58:38.515Z,21.00
2022-09-16T18:01:15.977Z,21.00
2022-09-16T18:03:47.320Z,21.00
2022-09-16T18:06:29.654Z,21.00
2022-09-16T18:09:02.762Z,21.00
2022-09-16T18:11:34.468Z,21.00
2022-09-16T18:14:05.509Z,21.00
2022-09-16T18:16:35.841Z,21.00
2022-09-16T18:19:06.264Z,21.00
2022-09-16T18:21:38.029Z,21.00
2022-09-16T18:24:12.428Z,21.00
2022-09-16T18:26:43.390Z,21.00
2022-09-16T18:29:14.162Z,21.00
2022-09-16T18:31:48.892Z,21.00
2022-09-16T18:34:19.229Z,21.00
2022-09-16T18:36:49.379Z,21.00
2022-09-16T18:39:19.503Z,20.90
2022-09-16T18:41:49.877Z,21.00
2022-09-16T18:44:22.055Z,20.90
2022-09-16T18:46:52.711Z,21.00
2022-09-16T18:49:25.193Z,21.00
2022-09-16T18:51:56.248Z,21.00
2022-09-16T18:54:29.718Z,21.00
2022-09-16T18:57:01.453Z,21.00
2022-09-16T18:59:32.837Z,21.00
2022-09-16T19:02:04.809Z,21.00
2022-09-16T19:04:38.741Z,21.00
2022-09-16T19:07:09.240Z,21.00
2022-09-16T19:09:40.967Z,21.00
2022-09-16T19:12:13.354Z,20.90
2022-09-16T19:14:43.867Z,21.00
2022-09-16T19:17:14.425Z,21.00
2022-09-16T19:19:44.590Z,21.00
2022-09-16T19:22:15.152Z,21.00
2022-09-16T19:24:45.414Z,21.00
2022-09-16T19:27:15.721Z,21.00
2022-09-16T19:29:46.342Z,20.90
2022-09-16T19:32:16.889Z,21.00
2022-09-16T19:34:46.797Z,21.00
2022-09-16T19:37:16.744Z,21.00
2022-09-16T19:39:46.684Z,21.00
2022-09-16T19:42:16.568Z,21.00
2022-09-16T19:44:46.474Z,21.00
2022-09-16T19:47:16.482Z,21.00
2022-09-16T19:49:46.380Z,21.00
2022-09-16T19:52:16.433Z,21.00
2022-09-16T19:54:46.664Z,21.00
2022-09-16T19:57:16.668Z,21.00
2022-09-16T19:59:47.521Z,21.00
2022-09-16T20:02:17.977Z,21.00
2022-09-16T20:04:48.522Z,21.00
2022-09-16T20:07:19.146Z,21.00
2022-09-16T20:09:49.792Z,21.00
2022-09-16T20:12:20.985Z,21.00
2022-09-16T20:14:51.176Z,21.00
2022-09-16T20:17:21.080Z,21.00
2022-09-16T20:19:51.072Z,21.00
2022-09-16T20:22:21.307Z,21.00
2022-09-16T20:25:06.515Z,21.00
2022-09-16T20:27:41.921Z,21.00
2022-09-16T20:30:12.482Z,21.00
2022-09-16T20:32:43.250Z,21.00
2022-09-16T20:35:13.857Z,21.00
2022-09-16T20:37:45.475Z,21.00
2022-09-16T20:40:15.928Z,21.00
2022-09-16T20:42:47.487Z,21.00
2022-09-16T20:45:17.729Z,21.00
2022-09-16T20:47:52.029Z,21.00
2022-09-16T20:50:22.799Z,21.00
2022-09-16T20:52:52.756Z,21.00
2022-09-16T20:55:22.702Z,20.90
2022-09-16T20:57:52.642Z,20.90
2022-09-16T21:00:23.754Z,20.90
2022-09-16T21:02:55.791Z,20.90
2022-09-16T21:05:25.922Z,20.90
2022-09-16T21:07:59.024Z,20.90
2022-09-16T21:10:28.872Z,20.90
2022-09-16T21:12:59.216Z,21.00
2022-09-16T21:15:29.606Z,20.90
2022-09-16T21:18:00.392Z,20.90
2022-09-16T21:20:31.143Z,20.90
2022-09-16T21:23:01.877Z,20.90
2022-09-16T21:25:33.942Z,20.90
2022-09-16T21:28:04.184Z,20.90
2022-09-16T21:30:35.357Z,20.90
2022-09-16T21:33:05.428Z,20.90
2022-09-16T21:35:35.376Z,20.90
2022-09-16T21:38:05.630Z,20.90
2022-09-16T21:40:39.690Z,20.90
2022-09-16T21:43:10.137Z,20.90
2022-09-16T21:45:45.752Z,20.90
2022-09-16T21:48:17.594Z,20.90
2022-09-16T21:50:50.766Z,20.90
2022-09-16T21:53:20.235Z,20.90
2022-09-16T21:55:50.196Z,20.90
2022-09-16T21:58:20.077Z,20.90
2022-09-16T22:00:50.560Z,20.80
2022-09-16T22:03:21.324Z,20.80
2022-09-16T22:05:51.658Z,20.80
2022-09-16T22:08:21.568Z,20.90
2022-09-16T22:10:51.742Z,20.90
2022-09-16T22:13:21.606Z,20.90
2022-09-16T22:15:52.740Z,20.80
2022-09-16T22:18:23.145Z,20.90
2022-09-16T22:20:54.553Z,20.80
2022-09-16T22:23:24.668Z,20.90
2022-09-16T22:25:54.939Z,20.90
2022-09-16T22:28:25.282Z,20.90
2022-09-16T22:31:05.556Z,20.90
2022-09-16T22:33:36.609Z,20.90
2022-09-16T22:36:08.067Z,20.90
2022-09-16T22:38:38.126Z,20.80
2022-09-16T22:41:09.976Z,20.80
2022-09-16T22:43:41.487Z,20.80
2022-09-16T22:46:13.552Z,20.80
2022-09-16T22:48:43.726Z,20.80
2022-09-16T22:51:14.649Z,20.80
2022-09-16T22:53:46.282Z,20.90
2022-09-16T22:56:19.184Z,20.90
2022-09-16T22:58:52.629Z,20.90
2022-09-16T23:01:25.123Z,20.90
2022-09-16T23:03:57.074Z,20.90
2022-09-16T23:06:28.082Z,20.90
2022-09-16T23:08:58.484Z,20.90
2022-09-16T23:11:31.356Z,20.90
2022-09-16T23:14:02.261Z,20.90
2022-09-16T23:16:34.082Z,20.90
2022-09-16T23:19:05.772Z,20.90
2022-09-16T23:21:35.686Z,20.90
2022-09-16T23:24:06.067Z,20.90
2022-09-16T23:26:37.777Z,20.90
2022-09-16T23:29:10.100Z,20.90
2022-09-16T23:31:44.383Z,20.90
2022-09-16T23:34:20.348Z,21.00
2022-09-16T23:36:50.556Z,21.00
2022-09-16T23:39:20.818Z,20.90
2022-09-16T23:41:51.692Z,20.90
2022-09-16T23:44:23.551Z,20.90
2022-09-16T23:46:54.145Z,21.00
2022-09-16T23:49:24.930Z,20.90
2022-09-16T23:51:55.585Z,21.00
2022-09-16T23:54:25.870Z,21.00
2022-09-16T23:56:55.932Z,20.90
2022-09-16T23:59:25.991Z,21.00
